EBBEEBBL

Guest
Details From EBBE - Beauvechain
To EBBL - KLEINE BROGEL
Flight Number -
Tags generated
Created
Modified
Stats Distance 37 nm / 68 km
Max Altitude 100 ft / 30 m
Waypoints 3
Social Downloads 0
Likes 0
Share VATSIM

Download

Looking for another format? Having issues loading an existing format? Contact us
Advertisement - Login to hide

Notes

Basic altitude profile: - Ascent Rate: 2500ft/min - Ascent Speed: 250kts - Cruise Altitude: 35000ft - Cruise Speed: 420kts - Descent Rate: 1500ft/min - Descent Speed: 250kts Options: - Use NATs: yes - Use PACOTS: yes - Use low airways: yes - Use high airways: yes

Route

EBBE GILOM EBBL

ID Type Via Altitude Latitude Longitude Leg Dist Tot Dist Heading (true) Name
O EBBE APT - 0 ft / 0 m 50.75695˚ 4.76936˚ - 0 nm - Beauvechain
GILOM FIX - 100 ft / 30 m 50.75202˚ 4.77411˚ 0 nm 0 nm 149° / 149° -
O EBBL APT - 0 ft / 0 m 51.16779˚ 5.47091˚ 36 nm 36 nm 46° / 47° KLEINE BROGEL

Altitude Profile

Advertisement - Login to hide

EBBE

Details ICAO EBBE
Name Beauvechain
Region Belgium
Timezone Europe/Brussels (UTC+1.0)
Stats Elevation 341 ft / 104 m (AMSL)
Location 50.756950° 4.769359°
Runways 2
Magnetic Variation 1.217° E

METAR

EBBE 181255Z 35009KT 9999 SCT022 BKN028 07/04 Q1025 WHT BLU TEMPO WHT

Decode

TAF

Not found

Departure Runways

ID Width Length Bearing (true) Bearing (mag) Surface Threshold Offset Overrun Length
04L 148 ft / 45 m 9,154 ft / 2,790 m 38.81° 37.59° Asphalt 213 ft / 65 m 965 ft / 294 m
04R 75 ft / 23 m 7,599 ft / 2,316 m 38.85° 37.63° Asphalt 0 ft / 0 m 0 ft / 0 m
22L 75 ft / 23 m 7,599 ft / 2,316 m 218.86° 217.64° Asphalt 0 ft / 0 m 0 ft / 0 m
22R 148 ft / 45 m 9,154 ft / 2,790 m 218.83° 217.61° Asphalt 1,145 ft / 349 m 0 ft / 0 m

EBBL

Details ICAO EBBL
Name KLEINE BROGEL
Region Belgium
Timezone Europe/Brussels (UTC+1.0)
Stats Elevation 200 ft / 61 m (AMSL)
Location 51.167787° 5.470907°
Runways 2
Magnetic Variation 1.415° E

METAR

EBBL 181255Z 33007KT 4000 -DZ FEW007 BKN013 OVC025 07/05 Q1024 GRN GRN TEMPO YLO

Decode

TAF

Not found

Destination Runways

ID Width Length Bearing (true) Bearing (mag) Surface Threshold Offset Overrun Length
05L 148 ft / 45 m 10,125 ft / 3,086 m 49.92° 48.50° Asphalt 1,086 ft / 331 m 0 ft / 0 m
05R 75 ft / 23 m 7,863 ft / 2,397 m 50.07° 48.65° Asphalt 0 ft / 0 m 0 ft / 0 m
23L 75 ft / 23 m 7,863 ft / 2,397 m 230.09° 228.67° Asphalt 23 ft / 7 m 0 ft / 0 m
23R 148 ft / 45 m 10,125 ft / 3,086 m 229.94° 228.52° Asphalt 1,129 ft / 344 m 0 ft / 0 m

Approach Navaids

Runway Type Ident Frequency Range Bearing (true) Bearing (mag) Slope Elevation
23R Localiser IBBL 109.95 MHz 18 nm / 33 km 230.77° 229.36° - 200 ft / 61 m (AMSL)
23R Glidescope IBBL 109.95 MHz 10 nm / 19 km 229.93° 228.51° 2.75° 200 ft / 61 m (AMSL)